Woolpit, United Kingdom
Current Conditions -  °F | °C
As of 6:50 AM on Friday 19 Dec 2014 (Local Time) from EGUW Reporting Station
Broken Clouds Broken Clouds  
Wind Chill: 43°   Ceiling: 2400
Heat Index: 48°   Visibility: 6mi
Dew Point: 45°   Wind: 12mph
Humidity: 87%   Direction: 290°WNW
Pressure: 29.77"   Gusts: NA
Location:  52.22°N, 0.89°E
Report Text: EGUW 190650Z 29010KT 9999 FEW009 BKN024 09/07 Q1008 WHT BECMG FEW025 BLU
Loading
Personal Weather Stations






























Interactive Weather Map New forecast layout! Learn more

10-Day Weather Forecast

Advertisements
Track Severe Weather on mobile